sensor_id;sensor_type;location;lat;lon;timestamp;pressure;altitude;pressure_sealevel;temperature
77355;BMP280;66422;51.202;19.936;2024-02-15T00:10:52;99816.72;;;6.73
77355;BMP280;66422;51.202;19.936;2024-02-15T00:26:12;99820.83;;;6.63
77355;BMP280;66422;51.202;19.936;2024-02-15T00:41:33;99827.56;;;6.47
77355;BMP280;66422;51.202;19.936;2024-02-15T00:56:54;99840.33;;;6.78
77355;BMP280;66422;51.202;19.936;2024-02-15T01:12:13;99845.98;;;6.65
77355;BMP280;66422;51.202;19.936;2024-02-15T01:27:33;99837.02;;;6.65
77355;BMP280;66422;51.202;19.936;2024-02-15T01:42:53;99840.29;;;6.50
77355;BMP280;66422;51.202;19.936;2024-02-15T01:58:15;99842.63;;;6.64
77355;BMP280;66422;51.202;19.936;2024-02-15T02:13:35;99837.69;;;6.74
77355;BMP280;66422;51.202;19.936;2024-02-15T02:28:55;99834.75;;;6.71
77355;BMP280;66422;51.202;19.936;2024-02-15T02:44:15;99824.99;;;6.30
77355;BMP280;66422;51.202;19.936;2024-02-15T02:59:36;99823.26;;;6.07
77355;BMP280;66422;51.202;19.936;2024-02-15T03:14:59;99820.35;;;5.85
77355;BMP280;66422;51.202;19.936;2024-02-15T03:30:20;99817.29;;;5.81
77355;BMP280;66422;51.202;19.936;2024-02-15T03:45:40;99815.81;;;5.88
77355;BMP280;66422;51.202;19.936;2024-02-15T04:01:01;99820.16;;;6.04
77355;BMP280;66422;51.202;19.936;2024-02-15T04:16:21;99812.73;;;6.16
77355;BMP280;66422;51.202;19.936;2024-02-15T04:31:41;99811.92;;;6.27
77355;BMP280;66422;51.202;19.936;2024-02-15T04:47:02;99812.86;;;6.32
77355;BMP280;66422;51.202;19.936;2024-02-15T05:02:25;99812.05;;;6.21
77355;BMP280;66422;51.202;19.936;2024-02-15T05:17:44;99819.33;;;6.16
77355;BMP280;66422;51.202;19.936;2024-02-15T05:33:04;99834.93;;;6.34
77355;BMP280;66422;51.202;19.936;2024-02-15T05:48:26;99837.80;;;6.38
77355;BMP280;66422;51.202;19.936;2024-02-15T06:03:47;99857.59;;;6.54
77355;BMP280;66422;51.202;19.936;2024-02-15T06:19:07;99857.42;;;6.32
77355;BMP280;66422;51.202;19.936;2024-02-15T06:34:27;99854.81;;;6.25
77355;BMP280;66422;51.202;19.936;2024-02-15T06:50:06;99866.45;;;6.53
77355;BMP280;66422;51.202;19.936;2024-02-15T07:05:28;99871.98;;;6.63
77355;BMP280;66422;51.202;19.936;2024-02-15T07:20:48;99890.89;;;7.03
77355;BMP280;66422;51.202;19.936;2024-02-15T07:36:08;99896.36;;;6.95
77355;BMP280;66422;51.202;19.936;2024-02-15T07:51:28;99898.79;;;7.00
77355;BMP280;66422;51.202;19.936;2024-02-15T08:06:48;99893.59;;;7.44
77355;BMP280;66422;51.202;19.936;2024-02-15T08:22:08;99892.55;;;7.71
77355;BMP280;66422;51.202;19.936;2024-02-15T08:37:29;99899.19;;;8.16
77355;BMP280;66422;51.202;19.936;2024-02-15T08:52:49;99902.67;;;8.92
77355;BMP280;66422;51.202;19.936;2024-02-15T09:08:09;99899.37;;;9.80
77355;BMP280;66422;51.202;19.936;2024-02-15T09:23:29;99899.46;;;10.27
77355;BMP280;66422;51.202;19.936;2024-02-15T09:38:50;99904.71;;;10.80
77355;BMP280;66422;51.202;19.936;2024-02-15T09:54:10;99910.16;;;11.43
77355;BMP280;66422;51.202;19.936;2024-02-15T10:09:32;99905.27;;;11.80
77355;BMP280;66422;51.202;19.936;2024-02-15T10:25:10;99885.52;;;11.96
77355;BMP280;66422;51.202;19.936;2024-02-15T10:40:30;99888.25;;;12.77
77355;BMP280;66422;51.202;19.936;2024-02-15T11:11:27;99877.02;;;12.97
77355;BMP280;66422;51.202;19.936;2024-02-15T11:26:48;99868.02;;;13.12
77355;BMP280;66422;51.202;19.936;2024-02-15T12:06:58;99842.86;;;13.96
77355;BMP280;66422;51.202;19.936;2024-02-15T12:22:43;99841.10;;;13.80
77355;BMP280;66422;51.202;19.936;2024-02-15T12:38:04;99833.94;;;14.14
77355;BMP280;66422;51.202;19.936;2024-02-15T12:53:24;99830.67;;;14.09
77355;BMP280;66422;51.202;19.936;2024-02-15T13:08:44;99815.77;;;14.25
77355;BMP280;66422;51.202;19.936;2024-02-15T13:24:08;99800.85;;;14.47
77355;BMP280;66422;51.202;19.936;2024-02-15T13:39:31;99786.06;;;14.66
77355;BMP280;66422;51.202;19.936;2024-02-15T13:54:53;99779.47;;;14.16
77355;BMP280;66422;51.202;19.936;2024-02-15T14:10:13;99771.70;;;13.65
77355;BMP280;66422;51.202;19.936;2024-02-15T14:25:33;99776.39;;;13.31
77355;BMP280;66422;51.202;19.936;2024-02-15T14:40:53;99786.20;;;12.93
77355;BMP280;66422;51.202;19.936;2024-02-15T14:56:14;99790.84;;;12.86
77355;BMP280;66422;51.202;19.936;2024-02-15T15:11:35;99786.90;;;12.94
77355;BMP280;66422;51.202;19.936;2024-02-15T15:27:14;99796.98;;;12.63
77355;BMP280;66422;51.202;19.936;2024-02-15T15:42:35;99792.36;;;12.21
77355;BMP280;66422;51.202;19.936;2024-02-15T15:57:55;99794.09;;;11.70
77355;BMP280;66422;51.202;19.936;2024-02-15T16:13:14;99796.33;;;11.29
77355;BMP280;66422;51.202;19.936;2024-02-15T16:28:35;99808.04;;;10.91
77355;BMP280;66422;51.202;19.936;2024-02-15T16:43:56;99814.72;;;10.79
77355;BMP280;66422;51.202;19.936;2024-02-15T16:59:16;99835.02;;;10.77
77355;BMP280;66422;51.202;19.936;2024-02-15T17:14:36;99845.54;;;10.68
77355;BMP280;66422;51.202;19.936;2024-02-15T17:29:57;99849.99;;;10.68
77355;BMP280;66422;51.202;19.936;2024-02-15T17:45:17;99863.44;;;10.70
77355;BMP280;66422;51.202;19.936;2024-02-15T18:00:37;99877.81;;;10.62
77355;BMP280;66422;51.202;19.936;2024-02-15T18:16:00;99882.15;;;10.65
77355;BMP280;66422;51.202;19.936;2024-02-15T18:31:20;99882.02;;;10.61
77355;BMP280;66422;51.202;19.936;2024-02-15T18:46:41;99884.10;;;10.63
77355;BMP280;66422;51.202;19.936;2024-02-15T19:02:04;99883.00;;;10.52
77355;BMP280;66422;51.202;19.936;2024-02-15T19:17:26;99883.63;;;10.50
77355;BMP280;66422;51.202;19.936;2024-02-15T19:32:47;99883.20;;;10.35
77355;BMP280;66422;51.202;19.936;2024-02-15T19:48:08;99875.44;;;10.07
77355;BMP280;66422;51.202;19.936;2024-02-15T20:03:32;99883.98;;;10.07
77355;BMP280;66422;51.202;19.936;2024-02-15T20:18:52;99886.30;;;9.96
77355;BMP280;66422;51.202;19.936;2024-02-15T20:34:11;99895.88;;;9.81
77355;BMP280;66422;51.202;19.936;2024-02-15T20:49:31;99899.09;;;9.32
77355;BMP280;66422;51.202;19.936;2024-02-15T21:04:51;99900.98;;;9.04
77355;BMP280;66422;51.202;19.936;2024-02-15T21:20:13;99906.35;;;8.65
77355;BMP280;66422;51.202;19.936;2024-02-15T21:35:33;99885.78;;;8.20
77355;BMP280;66422;51.202;19.936;2024-02-15T21:50:53;99880.11;;;7.85
77355;BMP280;66422;51.202;19.936;2024-02-15T22:23:09;99887.67;;;7.16
77355;BMP280;66422;51.202;19.936;2024-02-15T22:38:30;99888.53;;;6.90
77355;BMP280;66422;51.202;19.936;2024-02-15T22:53:50;99890.54;;;6.75
77355;BMP280;66422;51.202;19.936;2024-02-15T23:09:09;99894.91;;;6.52
77355;BMP280;66422;51.202;19.936;2024-02-15T23:24:29;99887.55;;;6.45
77355;BMP280;66422;51.202;19.936;2024-02-15T23:39:49;99892.93;;;6.17
77355;BMP280;66422;51.202;19.936;2024-02-15T23:55:28;99890.86;;;6.19
